sensor_id;sensor_type;location;lat;lon;timestamp;P1;durP1;ratioP1;P2;durP2;ratioP2
71351;SDS011;59159;51.652;4.864;2023-07-13T00:02:14;3.42;;;1.00;;
71351;SDS011;59159;51.652;4.864;2023-07-13T00:04:40;4.97;;;0.90;;
71351;SDS011;59159;51.652;4.864;2023-07-13T00:07:06;3.60;;;1.00;;
71351;SDS011;59159;51.652;4.864;2023-07-13T00:09:33;4.50;;;1.20;;
71351;SDS011;59159;51.652;4.864;2023-07-13T00:11:59;6.22;;;1.40;;
71351;SDS011;59159;51.652;4.864;2023-07-13T00:14:26;4.63;;;1.10;;
71351;SDS011;59159;51.652;4.864;2023-07-13T00:16:52;5.75;;;1.45;;
71351;SDS011;59159;51.652;4.864;2023-07-13T00:19:18;3.05;;;0.70;;
71351;SDS011;59159;51.652;4.864;2023-07-13T00:21:44;6.53;;;1.30;;
71351;SDS011;59159;51.652;4.864;2023-07-13T00:24:11;5.20;;;0.80;;
71351;SDS011;59159;51.652;4.864;2023-07-13T00:26:38;4.88;;;0.98;;
71351;SDS011;59159;51.652;4.864;2023-07-13T00:29:04;3.83;;;1.00;;
71351;SDS011;59159;51.652;4.864;2023-07-13T00:31:34;3.47;;;0.90;;
71351;SDS011;59159;51.652;4.864;2023-07-13T00:34:00;4.57;;;1.63;;
71351;SDS011;59159;51.652;4.864;2023-07-13T00:36:26;4.22;;;1.05;;
71351;SDS011;59159;51.652;4.864;2023-07-13T00:38:52;3.40;;;1.00;;
71351;SDS011;59159;51.652;4.864;2023-07-13T00:41:18;4.57;;;0.80;;
71351;SDS011;59159;51.652;4.864;2023-07-13T00:43:44;4.40;;;1.00;;
71351;SDS011;59159;51.652;4.864;2023-07-13T00:46:13;4.43;;;0.83;;
71351;SDS011;59159;51.652;4.864;2023-07-13T00:48:39;3.10;;;0.82;;
71351;SDS011;59159;51.652;4.864;2023-07-13T00:51:05;5.35;;;1.15;;
71351;SDS011;59159;51.652;4.864;2023-07-13T00:53:32;4.83;;;1.80;;
71351;SDS011;59159;51.652;4.864;2023-07-13T00:55:58;6.57;;;1.20;;
71351;SDS011;59159;51.652;4.864;2023-07-13T00:58:25;5.38;;;1.00;;
71351;SDS011;59159;51.652;4.864;2023-07-13T01:00:52;6.00;;;0.85;;
71351;SDS011;59159;51.652;4.864;2023-07-13T01:03:19;4.70;;;0.70;;
71351;SDS011;59159;51.652;4.864;2023-07-13T01:05:46;4.45;;;0.95;;
71351;SDS011;59159;51.652;4.864;2023-07-13T01:08:13;5.10;;;1.00;;
71351;SDS011;59159;51.652;4.864;2023-07-13T01:10:39;4.17;;;1.67;;
71351;SDS011;59159;51.652;4.864;2023-07-13T01:13:05;6.25;;;0.95;;
71351;SDS011;59159;51.652;4.864;2023-07-13T01:15:33;5.80;;;1.33;;
71351;SDS011;59159;51.652;4.864;2023-07-13T01:17:59;4.40;;;1.10;;
71351;SDS011;59159;51.652;4.864;2023-07-13T01:20:26;4.85;;;0.98;;
71351;SDS011;59159;51.652;4.864;2023-07-13T01:22:51;5.63;;;1.15;;
71351;SDS011;59159;51.652;4.864;2023-07-13T01:25:18;4.03;;;0.77;;
71351;SDS011;59159;51.652;4.864;2023-07-13T01:27:44;5.40;;;1.10;;
71351;SDS011;59159;51.652;4.864;2023-07-13T01:30:10;5.32;;;1.02;;
71351;SDS011;59159;51.652;4.864;2023-07-13T01:32:36;4.38;;;1.10;;
71351;SDS011;59159;51.652;4.864;2023-07-13T01:35:04;5.57;;;1.37;;
71351;SDS011;59159;51.652;4.864;2023-07-13T01:37:30;4.90;;;1.00;;
71351;SDS011;59159;51.652;4.864;2023-07-13T01:39:58;6.15;;;1.20;;
71351;SDS011;59159;51.652;4.864;2023-07-13T01:42:24;5.87;;;1.10;;
71351;SDS011;59159;51.652;4.864;2023-07-13T01:44:50;5.28;;;1.10;;
71351;SDS011;59159;51.652;4.864;2023-07-13T01:47:16;5.35;;;0.98;;
71351;SDS011;59159;51.652;4.864;2023-07-13T01:49:42;6.57;;;1.20;;
71351;SDS011;59159;51.652;4.864;2023-07-13T01:52:10;5.03;;;1.20;;
71351;SDS011;59159;51.652;4.864;2023-07-13T01:54:36;4.15;;;1.20;;
71351;SDS011;59159;51.652;4.864;2023-07-13T01:57:02;6.13;;;1.50;;
71351;SDS011;59159;51.652;4.864;2023-07-13T01:59:28;4.97;;;1.20;;
71351;SDS011;59159;51.652;4.864;2023-07-13T02:01:54;6.03;;;1.20;;
71351;SDS011;59159;51.652;4.864;2023-07-13T02:04:20;5.20;;;1.20;;
71351;SDS011;59159;51.652;4.864;2023-07-13T02:06:47;5.57;;;1.00;;
71351;SDS011;59159;51.652;4.864;2023-07-13T02:09:12;5.32;;;1.02;;
71351;SDS011;59159;51.652;4.864;2023-07-13T02:11:38;5.60;;;1.38;;
71351;SDS011;59159;51.652;4.864;2023-07-13T02:14:04;7.05;;;1.20;;
71351;SDS011;59159;51.652;4.864;2023-07-13T02:16:30;6.57;;;1.20;;
71351;SDS011;59159;51.652;4.864;2023-07-13T02:18:56;4.90;;;1.10;;
71351;SDS011;59159;51.652;4.864;2023-07-13T02:21:23;8.00;;;1.42;;
71351;SDS011;59159;51.652;4.864;2023-07-13T02:23:49;7.13;;;1.63;;
71351;SDS011;59159;51.652;4.864;2023-07-13T02:26:15;6.18;;;1.00;;
71351;SDS011;59159;51.652;4.864;2023-07-13T02:28:41;6.07;;;1.52;;
71351;SDS011;59159;51.652;4.864;2023-07-13T02:31:08;5.40;;;1.23;;
71351;SDS011;59159;51.652;4.864;2023-07-13T02:33:34;7.05;;;1.17;;
71351;SDS011;59159;51.652;4.864;2023-07-13T02:36:01;5.45;;;1.30;;
71351;SDS011;59159;51.652;4.864;2023-07-13T02:38:27;5.30;;;1.30;;
71351;SDS011;59159;51.652;4.864;2023-07-13T02:40:53;5.00;;;1.17;;
71351;SDS011;59159;51.652;4.864;2023-07-13T02:43:19;4.55;;;1.08;;
71351;SDS011;59159;51.652;4.864;2023-07-13T02:45:45;7.28;;;1.15;;
71351;SDS011;59159;51.652;4.864;2023-07-13T02:48:13;5.77;;;1.40;;
71351;SDS011;59159;51.652;4.864;2023-07-13T02:50:39;6.25;;;1.05;;
71351;SDS011;59159;51.652;4.864;2023-07-13T02:53:05;6.70;;;1.00;;
71351;SDS011;59159;51.652;4.864;2023-07-13T02:55:31;7.07;;;1.30;;
71351;SDS011;59159;51.652;4.864;2023-07-13T02:57:57;7.63;;;1.30;;
71351;SDS011;59159;51.652;4.864;2023-07-13T03:00:23;5.22;;;1.30;;
71351;SDS011;59159;51.652;4.864;2023-07-13T03:02:49;5.35;;;1.25;;
71351;SDS011;59159;51.652;4.864;2023-07-13T03:05:15;6.77;;;1.27;;
71351;SDS011;59159;51.652;4.864;2023-07-13T03:07:42;7.22;;;1.40;;
71351;SDS011;59159;51.652;4.864;2023-07-13T03:10:08;7.55;;;1.52;;
71351;SDS011;59159;51.652;4.864;2023-07-13T03:12:35;6.10;;;1.40;;
71351;SDS011;59159;51.652;4.864;2023-07-13T03:15:01;5.75;;;1.48;;
71351;SDS011;59159;51.652;4.864;2023-07-13T03:17:27;5.25;;;1.55;;
71351;SDS011;59159;51.652;4.864;2023-07-13T03:19:53;7.40;;;1.27;;
71351;SDS011;59159;51.652;4.864;2023-07-13T03:22:19;7.07;;;1.63;;
71351;SDS011;59159;51.652;4.864;2023-07-13T03:24:45;7.53;;;1.42;;
71351;SDS011;59159;51.652;4.864;2023-07-13T03:27:11;5.50;;;1.13;;
71351;SDS011;59159;51.652;4.864;2023-07-13T03:29:37;9.67;;;2.07;;
71351;SDS011;59159;51.652;4.864;2023-07-13T03:32:03;6.40;;;1.15;;
71351;SDS011;59159;51.652;4.864;2023-07-13T03:34:30;6.65;;;1.20;;
71351;SDS011;59159;51.652;4.864;2023-07-13T03:36:56;4.23;;;1.00;;
71351;SDS011;59159;51.652;4.864;2023-07-13T03:39:22;6.85;;;1.50;;
71351;SDS011;59159;51.652;4.864;2023-07-13T03:41:48;6.22;;;1.58;;
71351;SDS011;59159;51.652;4.864;2023-07-13T03:44:15;6.20;;;1.20;;
71351;SDS011;59159;51.652;4.864;2023-07-13T03:46:42;7.00;;;1.17;;
71351;SDS011;59159;51.652;4.864;2023-07-13T03:49:11;7.78;;;1.65;;
71351;SDS011;59159;51.652;4.864;2023-07-13T03:51:37;7.05;;;1.48;;
71351;SDS011;59159;51.652;4.864;2023-07-13T03:54:03;5.67;;;1.57;;
71351;SDS011;59159;51.652;4.864;2023-07-13T03:56:29;7.55;;;1.60;;
71351;SDS011;59159;51.652;4.864;2023-07-13T03:58:57;7.57;;;1.70;;
71351;SDS011;59159;51.652;4.864;2023-07-13T04:01:24;8.47;;;1.90;;
71351;SDS011;59159;51.652;4.864;2023-07-13T04:03:50;7.07;;;1.83;;
71351;SDS011;59159;51.652;4.864;2023-07-13T04:06:20;6.07;;;1.50;;
71351;SDS011;59159;51.652;4.864;2023-07-13T04:08:48;5.67;;;1.70;;
71351;SDS011;59159;51.652;4.864;2023-07-13T04:11:15;6.65;;;1.45;;
71351;SDS011;59159;51.652;4.864;2023-07-13T04:13:41;7.68;;;2.45;;
71351;SDS011;59159;51.652;4.864;2023-07-13T04:16:07;9.68;;;1.52;;
71351;SDS011;59159;51.652;4.864;2023-07-13T04:18:33;8.33;;;1.57;;
71351;SDS011;59159;51.652;4.864;2023-07-13T04:20:59;12.00;;;3.00;;
71351;SDS011;59159;51.652;4.864;2023-07-13T04:23:25;13.43;;;3.50;;
71351;SDS011;59159;51.652;4.864;2023-07-13T04:25:51;11.17;;;3.10;;
71351;SDS011;59159;51.652;4.864;2023-07-13T04:28:18;17.10;;;4.43;;
71351;SDS011;59159;51.652;4.864;2023-07-13T04:30:44;11.40;;;3.35;;
71351;SDS011;59159;51.652;4.864;2023-07-13T04:33:10;15.00;;;3.73;;
71351;SDS011;59159;51.652;4.864;2023-07-13T04:35:37;13.02;;;3.35;;
71351;SDS011;59159;51.652;4.864;2023-07-13T04:38:03;16.23;;;4.00;;
71351;SDS011;59159;51.652;4.864;2023-07-13T04:40:29;14.07;;;3.22;;
71351;SDS011;59159;51.652;4.864;2023-07-13T04:42:55;13.17;;;4.30;;
71351;SDS011;59159;51.652;4.864;2023-07-13T04:45:21;13.73;;;4.00;;
71351;SDS011;59159;51.652;4.864;2023-07-13T04:47:49;11.88;;;3.33;;
71351;SDS011;59159;51.652;4.864;2023-07-13T04:50:15;18.77;;;3.97;;
71351;SDS011;59159;51.652;4.864;2023-07-13T04:52:45;12.52;;;3.88;;
71351;SDS011;59159;51.652;4.864;2023-07-13T04:55:11;13.55;;;3.85;;
71351;SDS011;59159;51.652;4.864;2023-07-13T04:57:37;11.70;;;3.60;;
71351;SDS011;59159;51.652;4.864;2023-07-13T05:00:04;16.33;;;4.28;;
71351;SDS011;59159;51.652;4.864;2023-07-13T05:02:30;13.18;;;4.22;;
71351;SDS011;59159;51.652;4.864;2023-07-13T05:04:57;16.73;;;4.35;;
71351;SDS011;59159;51.652;4.864;2023-07-13T05:07:24;16.70;;;4.03;;
71351;SDS011;59159;51.652;4.864;2023-07-13T05:09:50;14.35;;;3.90;;
71351;SDS011;59159;51.652;4.864;2023-07-13T05:12:17;16.52;;;5.10;;
71351;SDS011;59159;51.652;4.864;2023-07-13T05:14:44;14.20;;;5.00;;
71351;SDS011;59159;51.652;4.864;2023-07-13T05:17:11;19.02;;;4.72;;
71351;SDS011;59159;51.652;4.864;2023-07-13T05:19:38;18.10;;;4.97;;
71351;SDS011;59159;51.652;4.864;2023-07-13T05:22:04;12.87;;;4.40;;
71351;SDS011;59159;51.652;4.864;2023-07-13T05:24:30;15.25;;;5.38;;
71351;SDS011;59159;51.652;4.864;2023-07-13T05:26:56;17.08;;;4.50;;
71351;SDS011;59159;51.652;4.864;2023-07-13T05:29:22;16.55;;;5.53;;
71351;SDS011;59159;51.652;4.864;2023-07-13T05:31:49;14.80;;;5.23;;
71351;SDS011;59159;51.652;4.864;2023-07-13T05:34:15;19.45;;;5.50;;
71351;SDS011;59159;51.652;4.864;2023-07-13T05:36:41;16.38;;;6.28;;
71351;SDS011;59159;51.652;4.864;2023-07-13T05:39:07;15.37;;;5.43;;
71351;SDS011;59159;51.652;4.864;2023-07-13T05:41:33;16.25;;;5.72;;
71351;SDS011;59159;51.652;4.864;2023-07-13T05:43:59;15.55;;;5.78;;
71351;SDS011;59159;51.652;4.864;2023-07-13T05:46:25;17.87;;;4.73;;
71351;SDS011;59159;51.652;4.864;2023-07-13T05:48:51;17.48;;;5.82;;
71351;SDS011;59159;51.652;4.864;2023-07-13T05:51:17;18.30;;;5.80;;
71351;SDS011;59159;51.652;4.864;2023-07-13T05:53:43;16.23;;;5.53;;
71351;SDS011;59159;51.652;4.864;2023-07-13T05:56:09;17.43;;;6.40;;
71351;SDS011;59159;51.652;4.864;2023-07-13T05:58:36;19.02;;;6.43;;
71351;SDS011;59159;51.652;4.864;2023-07-13T06:01:03;18.73;;;6.45;;
71351;SDS011;59159;51.652;4.864;2023-07-13T06:03:30;18.80;;;6.10;;
71351;SDS011;59159;51.652;4.864;2023-07-13T06:05:56;15.18;;;6.22;;
71351;SDS011;59159;51.652;4.864;2023-07-13T06:08:22;16.70;;;6.85;;
71351;SDS011;59159;51.652;4.864;2023-07-13T06:10:48;17.70;;;7.73;;
71351;SDS011;59159;51.652;4.864;2023-07-13T06:13:14;17.70;;;7.18;;
71351;SDS011;59159;51.652;4.864;2023-07-13T06:15:40;13.88;;;6.00;;
71351;SDS011;59159;51.652;4.864;2023-07-13T06:18:05;17.83;;;6.22;;
71351;SDS011;59159;51.652;4.864;2023-07-13T06:20:33;13.30;;;5.57;;
71351;SDS011;59159;51.652;4.864;2023-07-13T06:23:00;11.85;;;5.95;;
71351;SDS011;59159;51.652;4.864;2023-07-13T06:25:26;16.35;;;5.70;;
71351;SDS011;59159;51.652;4.864;2023-07-13T06:27:53;16.97;;;5.40;;
71351;SDS011;59159;51.652;4.864;2023-07-13T06:30:19;13.13;;;5.38;;
71351;SDS011;59159;51.652;4.864;2023-07-13T06:32:45;15.43;;;5.00;;
71351;SDS011;59159;51.652;4.864;2023-07-13T06:35:10;12.43;;;5.83;;
71351;SDS011;59159;51.652;4.864;2023-07-13T06:37:38;13.38;;;5.35;;
71351;SDS011;59159;51.652;4.864;2023-07-13T06:40:04;14.50;;;5.82;;
71351;SDS011;59159;51.652;4.864;2023-07-13T06:42:31;21.48;;;5.90;;
71351;SDS011;59159;51.652;4.864;2023-07-13T06:44:57;16.63;;;5.33;;
71351;SDS011;59159;51.652;4.864;2023-07-13T06:47:22;12.07;;;4.60;;
71351;SDS011;59159;51.652;4.864;2023-07-13T06:49:48;12.45;;;4.13;;
71351;SDS011;59159;51.652;4.864;2023-07-13T06:52:14;12.83;;;4.80;;
71351;SDS011;59159;51.652;4.864;2023-07-13T06:54:40;14.90;;;4.65;;
71351;SDS011;59159;51.652;4.864;2023-07-13T06:57:06;12.55;;;4.38;;
71351;SDS011;59159;51.652;4.864;2023-07-13T06:59:32;15.07;;;4.13;;
71351;SDS011;59159;51.652;4.864;2023-07-13T07:01:58;11.02;;;4.07;;
71351;SDS011;59159;51.652;4.864;2023-07-13T07:04:24;10.38;;;3.60;;
71351;SDS011;59159;51.652;4.864;2023-07-13T07:06:50;12.93;;;4.65;;
71351;SDS011;59159;51.652;4.864;2023-07-13T07:09:17;14.63;;;4.73;;
71351;SDS011;59159;51.652;4.864;2023-07-13T07:11:43;11.02;;;3.90;;
71351;SDS011;59159;51.652;4.864;2023-07-13T07:14:09;14.60;;;4.15;;
71351;SDS011;59159;51.652;4.864;2023-07-13T07:16:35;15.07;;;3.70;;
71351;SDS011;59159;51.652;4.864;2023-07-13T07:19:01;10.25;;;3.70;;
71351;SDS011;59159;51.652;4.864;2023-07-13T07:21:27;10.55;;;3.33;;
71351;SDS011;59159;51.652;4.864;2023-07-13T07:23:53;13.53;;;3.53;;
71351;SDS011;59159;51.652;4.864;2023-07-13T07:26:19;14.02;;;3.83;;
71351;SDS011;59159;51.652;4.864;2023-07-13T07:28:45;14.48;;;3.60;;
71351;SDS011;59159;51.652;4.864;2023-07-13T07:31:11;12.52;;;3.20;;
71351;SDS011;59159;51.652;4.864;2023-07-13T07:33:37;13.80;;;3.27;;
71351;SDS011;59159;51.652;4.864;2023-07-13T07:36:03;12.63;;;3.40;;
71351;SDS011;59159;51.652;4.864;2023-07-13T07:38:29;10.27;;;3.63;;
71351;SDS011;59159;51.652;4.864;2023-07-13T07:40:55;9.43;;;3.03;;
71351;SDS011;59159;51.652;4.864;2023-07-13T07:43:21;10.63;;;2.60;;
71351;SDS011;59159;51.652;4.864;2023-07-13T07:45:47;12.60;;;3.35;;
71351;SDS011;59159;51.652;4.864;2023-07-13T07:48:13;9.53;;;2.63;;
71351;SDS011;59159;51.652;4.864;2023-07-13T07:50:39;9.95;;;2.75;;
71351;SDS011;59159;51.652;4.864;2023-07-13T07:53:06;8.02;;;2.55;;
71351;SDS011;59159;51.652;4.864;2023-07-13T07:55:33;10.18;;;2.95;;
71351;SDS011;59159;51.652;4.864;2023-07-13T07:58:00;12.77;;;3.10;;
71351;SDS011;59159;51.652;4.864;2023-07-13T08:00:26;9.73;;;2.63;;
71351;SDS011;59159;51.652;4.864;2023-07-13T08:02:55;9.88;;;2.47;;
71351;SDS011;59159;51.652;4.864;2023-07-13T08:05:21;8.67;;;2.47;;
71351;SDS011;59159;51.652;4.864;2023-07-13T08:07:47;12.15;;;2.80;;
71351;SDS011;59159;51.652;4.864;2023-07-13T08:10:13;10.85;;;3.00;;
71351;SDS011;59159;51.652;4.864;2023-07-13T08:12:39;6.90;;;1.90;;
71351;SDS011;59159;51.652;4.864;2023-07-13T08:15:06;10.13;;;2.25;;
71351;SDS011;59159;51.652;4.864;2023-07-13T08:17:32;8.60;;;2.53;;
71351;SDS011;59159;51.652;4.864;2023-07-13T08:19:58;12.38;;;2.45;;
71351;SDS011;59159;51.652;4.864;2023-07-13T08:22:24;8.87;;;2.57;;
71351;SDS011;59159;51.652;4.864;2023-07-13T08:24:50;7.97;;;2.25;;
71351;SDS011;59159;51.652;4.864;2023-07-13T08:27:21;9.27;;;2.08;;
71351;SDS011;59159;51.652;4.864;2023-07-13T08:29:47;8.33;;;2.33;;
71351;SDS011;59159;51.652;4.864;2023-07-13T08:32:13;8.82;;;2.15;;
71351;SDS011;59159;51.652;4.864;2023-07-13T08:34:40;11.70;;;2.72;;
71351;SDS011;59159;51.652;4.864;2023-07-13T08:37:06;9.23;;;2.07;;
71351;SDS011;59159;51.652;4.864;2023-07-13T08:39:32;10.18;;;2.72;;
71351;SDS011;59159;51.652;4.864;2023-07-13T08:42:04;10.00;;;2.67;;
71351;SDS011;59159;51.652;4.864;2023-07-13T08:47:00;7.90;;;2.07;;
71351;SDS011;59159;51.652;4.864;2023-07-13T08:49:26;8.40;;;2.10;;
71351;SDS011;59159;51.652;4.864;2023-07-13T08:51:58;8.50;;;2.50;;
71351;SDS011;59159;51.652;4.864;2023-07-13T08:54:31;9.27;;;2.80;;
71351;SDS011;59159;51.652;4.864;2023-07-13T08:57:02;9.07;;;2.15;;
71351;SDS011;59159;51.652;4.864;2023-07-13T08:59:30;7.53;;;2.17;;
71351;SDS011;59159;51.652;4.864;2023-07-13T09:04:28;8.13;;;2.00;;
71351;SDS011;59159;51.652;4.864;2023-07-13T09:12:25;5.27;;;1.80;;
71351;SDS011;59159;51.652;4.864;2023-07-13T09:14:45;9.65;;;2.10;;
71351;SDS011;59159;51.652;4.864;2023-07-13T09:17:20;8.80;;;1.83;;
71351;SDS011;59159;51.652;4.864;2023-07-13T09:19:48;8.30;;;2.20;;
71351;SDS011;59159;51.652;4.864;2023-07-13T09:22:16;7.00;;;1.80;;
71351;SDS011;59159;51.652;4.864;2023-07-13T09:24:51;7.53;;;2.05;;
71351;SDS011;59159;51.652;4.864;2023-07-13T09:27:22;7.40;;;1.83;;
71351;SDS011;59159;51.652;4.864;2023-07-13T09:29:50;10.75;;;2.20;;
71351;SDS011;59159;51.652;4.864;2023-07-13T09:32:21;7.85;;;1.70;;
71351;SDS011;59159;51.652;4.864;2023-07-13T09:34:50;6.22;;;1.95;;
71351;SDS011;59159;51.652;4.864;2023-07-13T09:37:16;6.70;;;1.70;;
71351;SDS011;59159;51.652;4.864;2023-07-13T09:39:42;11.63;;;1.90;;
71351;SDS011;59159;51.652;4.864;2023-07-13T09:44:38;8.33;;;1.70;;
71351;SDS011;59159;51.652;4.864;2023-07-13T09:50:10;5.78;;;1.52;;
71351;SDS011;59159;51.652;4.864;2023-07-13T09:52:46;8.33;;;2.00;;
71351;SDS011;59159;51.652;4.864;2023-07-13T09:55:26;5.53;;;1.48;;
71351;SDS011;59159;51.652;4.864;2023-07-13T09:57:52;7.68;;;2.15;;
71351;SDS011;59159;51.652;4.864;2023-07-13T10:00:21;7.25;;;2.10;;
71351;SDS011;59159;51.652;4.864;2023-07-13T10:02:49;6.90;;;1.80;;
71351;SDS011;59159;51.652;4.864;2023-07-13T10:05:23;6.50;;;2.05;;
71351;SDS011;59159;51.652;4.864;2023-07-13T10:07:50;9.52;;;1.95;;
71351;SDS011;59159;51.652;4.864;2023-07-13T10:10:17;8.70;;;2.27;;
71351;SDS011;59159;51.652;4.864;2023-07-13T10:12:45;7.53;;;1.65;;
71351;SDS011;59159;51.652;4.864;2023-07-13T10:15:15;6.88;;;2.13;;
71351;SDS011;59159;51.652;4.864;2023-07-13T10:17:41;7.20;;;1.77;;
71351;SDS011;59159;51.652;4.864;2023-07-13T10:20:09;6.72;;;1.92;;
71351;SDS011;59159;51.652;4.864;2023-07-13T10:25:08;5.90;;;1.67;;
71351;SDS011;59159;51.652;4.864;2023-07-13T10:27:39;9.53;;;2.53;;
71351;SDS011;59159;51.652;4.864;2023-07-13T10:32:34;8.27;;;2.38;;
71351;SDS011;59159;51.652;4.864;2023-07-13T10:35:01;6.00;;;2.07;;
71351;SDS011;59159;51.652;4.864;2023-07-13T10:37:31;8.15;;;2.25;;
71351;SDS011;59159;51.652;4.864;2023-07-13T10:40:02;5.95;;;1.85;;
71351;SDS011;59159;51.652;4.864;2023-07-13T10:42:32;6.23;;;2.03;;
71351;SDS011;59159;51.652;4.864;2023-07-13T10:44:59;7.75;;;2.03;;
71351;SDS011;59159;51.652;4.864;2023-07-13T10:47:25;9.98;;;2.50;;
71351;SDS011;59159;51.652;4.864;2023-07-13T10:49:54;5.50;;;1.60;;
71351;SDS011;59159;51.652;4.864;2023-07-13T10:55:05;8.43;;;2.00;;
71351;SDS011;59159;51.652;4.864;2023-07-13T10:57:32;7.43;;;2.10;;
71351;SDS011;59159;51.652;4.864;2023-07-13T11:00:25;8.07;;;2.33;;
71351;SDS011;59159;51.652;4.864;2023-07-13T11:02:57;6.35;;;1.80;;
71351;SDS011;59159;51.652;4.864;2023-07-13T11:07:56;5.77;;;1.73;;
71351;SDS011;59159;51.652;4.864;2023-07-13T11:13:36;5.53;;;1.42;;
71351;SDS011;59159;51.652;4.864;2023-07-13T11:16:12;5.00;;;1.30;;
71351;SDS011;59159;51.652;4.864;2023-07-13T11:18:38;4.73;;;1.20;;
71351;SDS011;59159;51.652;4.864;2023-07-13T11:21:17;5.00;;;1.40;;
71351;SDS011;59159;51.652;4.864;2023-07-13T11:23:44;5.50;;;1.50;;
71351;SDS011;59159;51.652;4.864;2023-07-13T11:28:56;6.07;;;1.35;;
71351;SDS011;59159;51.652;4.864;2023-07-13T11:31:22;7.45;;;2.10;;
71351;SDS011;59159;51.652;4.864;2023-07-13T11:33:50;7.37;;;1.80;;
71351;SDS011;59159;51.652;4.864;2023-07-13T11:36:17;5.32;;;1.17;;
71351;SDS011;59159;51.652;4.864;2023-07-13T11:38:49;4.65;;;1.30;;
71351;SDS011;59159;51.652;4.864;2023-07-13T11:41:17;5.47;;;1.25;;
71351;SDS011;59159;51.652;4.864;2023-07-13T11:43:44;5.77;;;2.07;;
71351;SDS011;59159;51.652;4.864;2023-07-13T11:46:23;4.63;;;1.10;;
71351;SDS011;59159;51.652;4.864;2023-07-13T11:48:50;7.20;;;1.40;;
71351;SDS011;59159;51.652;4.864;2023-07-13T11:51:27;4.90;;;1.23;;
71351;SDS011;59159;51.652;4.864;2023-07-13T11:53:54;6.55;;;1.35;;
71351;SDS011;59159;51.652;4.864;2023-07-13T11:56:21;5.18;;;1.20;;
71351;SDS011;59159;51.652;4.864;2023-07-13T11:58:49;6.30;;;1.70;;
71351;SDS011;59159;51.652;4.864;2023-07-13T12:01:18;5.90;;;1.40;;
71351;SDS011;59159;51.652;4.864;2023-07-13T12:03:45;5.50;;;1.40;;
71351;SDS011;59159;51.652;4.864;2023-07-13T12:06:28;5.57;;;1.48;;
71351;SDS011;59159;51.652;4.864;2023-07-13T12:08:58;7.63;;;1.77;;
71351;SDS011;59159;51.652;4.864;2023-07-13T12:11:24;7.28;;;1.38;;
71351;SDS011;59159;51.652;4.864;2023-07-13T12:13:50;5.55;;;1.30;;
71351;SDS011;59159;51.652;4.864;2023-07-13T12:16:25;5.07;;;1.23;;
71351;SDS011;59159;51.652;4.864;2023-07-13T12:18:53;9.65;;;1.25;;
71351;SDS011;59159;51.652;4.864;2023-07-13T12:21:21;7.78;;;1.40;;
71351;SDS011;59159;51.652;4.864;2023-07-13T12:23:48;5.90;;;1.70;;
71351;SDS011;59159;51.652;4.864;2023-07-13T12:26:14;4.18;;;1.00;;
71351;SDS011;59159;51.652;4.864;2023-07-13T12:28:48;5.00;;;1.15;;
71351;SDS011;59159;51.652;4.864;2023-07-13T12:31:22;4.32;;;1.02;;
71351;SDS011;59159;51.652;4.864;2023-07-13T12:33:55;5.93;;;1.20;;
71351;SDS011;59159;51.652;4.864;2023-07-13T12:36:22;5.15;;;1.35;;
71351;SDS011;59159;51.652;4.864;2023-07-13T12:38:48;6.18;;;1.25;;
71351;SDS011;59159;51.652;4.864;2023-07-13T12:41:14;4.80;;;1.23;;
71351;SDS011;59159;51.652;4.864;2023-07-13T12:43:40;5.47;;;1.33;;
71351;SDS011;59159;51.652;4.864;2023-07-13T12:46:24;4.47;;;1.42;;
71351;SDS011;59159;51.652;4.864;2023-07-13T12:48:53;4.80;;;1.40;;
71351;SDS011;59159;51.652;4.864;2023-07-13T12:51:24;4.47;;;0.82;;
71351;SDS011;59159;51.652;4.864;2023-07-13T12:53:51;4.40;;;1.17;;
71351;SDS011;59159;51.652;4.864;2023-07-13T12:56:23;4.00;;;1.10;;
71351;SDS011;59159;51.652;4.864;2023-07-13T12:58:50;4.43;;;1.10;;
71351;SDS011;59159;51.652;4.864;2023-07-13T13:01:20;4.00;;;1.13;;
71351;SDS011;59159;51.652;4.864;2023-07-13T13:03:48;6.70;;;1.75;;
71351;SDS011;59159;51.652;4.864;2023-07-13T13:08:45;7.65;;;2.53;;
71351;SDS011;59159;51.652;4.864;2023-07-13T13:11:13;7.75;;;2.45;;
71351;SDS011;59159;51.652;4.864;2023-07-13T13:13:41;6.50;;;1.70;;
71351;SDS011;59159;51.652;4.864;2023-07-13T13:16:21;8.50;;;2.03;;
71351;SDS011;59159;51.652;4.864;2023-07-13T13:18:47;6.75;;;2.17;;
71351;SDS011;59159;51.652;4.864;2023-07-13T13:21:14;5.03;;;1.77;;
71351;SDS011;59159;51.652;4.864;2023-07-13T13:23:40;14.37;;;1.70;;
71351;SDS011;59159;51.652;4.864;2023-07-13T13:26:10;9.93;;;2.10;;
71351;SDS011;59159;51.652;4.864;2023-07-13T13:28:36;4.85;;;1.42;;
71351;SDS011;59159;51.652;4.864;2023-07-13T13:31:02;5.57;;;1.33;;
71351;SDS011;59159;51.652;4.864;2023-07-13T13:33:28;7.15;;;1.48;;
71351;SDS011;59159;51.652;4.864;2023-07-13T13:35:55;5.28;;;1.70;;
71351;SDS011;59159;51.652;4.864;2023-07-13T13:38:25;6.10;;;1.70;;
71351;SDS011;59159;51.652;4.864;2023-07-13T13:40:51;7.63;;;1.70;;
71351;SDS011;59159;51.652;4.864;2023-07-13T13:43:18;6.30;;;1.67;;
71351;SDS011;59159;51.652;4.864;2023-07-13T13:45:45;6.15;;;1.55;;
71351;SDS011;59159;51.652;4.864;2023-07-13T13:48:18;15.20;;;2.10;;
71351;SDS011;59159;51.652;4.864;2023-07-13T13:50:44;7.47;;;1.80;;
71351;SDS011;59159;51.652;4.864;2023-07-13T13:53:11;6.18;;;1.90;;
71351;SDS011;59159;51.652;4.864;2023-07-13T13:55:38;5.10;;;1.50;;
71351;SDS011;59159;51.652;4.864;2023-07-13T13:58:06;6.15;;;2.03;;
71351;SDS011;59159;51.652;4.864;2023-07-13T14:00:32;6.13;;;1.40;;
71351;SDS011;59159;51.652;4.864;2023-07-13T14:02:58;4.23;;;1.37;;
71351;SDS011;59159;51.652;4.864;2023-07-13T14:05:25;4.57;;;1.30;;
71351;SDS011;59159;51.652;4.864;2023-07-13T14:07:51;5.18;;;1.40;;
71351;SDS011;59159;51.652;4.864;2023-07-13T14:10:18;5.20;;;1.50;;
71351;SDS011;59159;51.652;4.864;2023-07-13T14:12:51;6.53;;;1.57;;
71351;SDS011;59159;51.652;4.864;2023-07-13T14:15:20;5.25;;;1.35;;
71351;SDS011;59159;51.652;4.864;2023-07-13T14:17:46;6.13;;;1.50;;
71351;SDS011;59159;51.652;4.864;2023-07-13T14:20:15;4.77;;;1.33;;
71351;SDS011;59159;51.652;4.864;2023-07-13T14:22:41;4.95;;;1.42;;
71351;SDS011;59159;51.652;4.864;2023-07-13T14:25:13;4.68;;;1.30;;
71351;SDS011;59159;51.652;4.864;2023-07-13T14:27:39;5.70;;;1.40;;
71351;SDS011;59159;51.652;4.864;2023-07-13T14:30:16;5.65;;;1.40;;
71351;SDS011;59159;51.652;4.864;2023-07-13T14:32:42;5.20;;;1.85;;
71351;SDS011;59159;51.652;4.864;2023-07-13T14:35:12;3.65;;;1.23;;
71351;SDS011;59159;51.652;4.864;2023-07-13T14:37:41;5.70;;;1.43;;
71351;SDS011;59159;51.652;4.864;2023-07-13T14:40:14;5.18;;;1.70;;
71351;SDS011;59159;51.652;4.864;2023-07-13T14:42:40;4.97;;;1.30;;
71351;SDS011;59159;51.652;4.864;2023-07-13T14:45:16;4.93;;;1.53;;
71351;SDS011;59159;51.652;4.864;2023-07-13T14:47:43;5.07;;;1.60;;
71351;SDS011;59159;51.652;4.864;2023-07-13T14:50:42;5.38;;;1.27;;
71351;SDS011;59159;51.652;4.864;2023-07-13T14:53:03;4.77;;;1.27;;
71351;SDS011;59159;51.652;4.864;2023-07-13T14:55:29;3.85;;;1.00;;
71351;SDS011;59159;51.652;4.864;2023-07-13T14:57:55;6.18;;;1.55;;
71351;SDS011;59159;51.652;4.864;2023-07-13T15:00:22;4.53;;;1.20;;
71351;SDS011;59159;51.652;4.864;2023-07-13T15:02:50;5.07;;;1.33;;
71351;SDS011;59159;51.652;4.864;2023-07-13T15:05:19;6.30;;;1.38;;
71351;SDS011;59159;51.652;4.864;2023-07-13T15:07:45;4.07;;;1.17;;
71351;SDS011;59159;51.652;4.864;2023-07-13T15:10:13;7.53;;;1.60;;
71351;SDS011;59159;51.652;4.864;2023-07-13T15:12:39;3.90;;;1.08;;
71351;SDS011;59159;51.652;4.864;2023-07-13T15:15:05;3.83;;;1.10;;
71351;SDS011;59159;51.652;4.864;2023-07-13T15:17:32;4.73;;;1.20;;
71351;SDS011;59159;51.652;4.864;2023-07-13T15:20:01;5.60;;;1.15;;